sensor_id;sensor_type;location;lat;lon;timestamp;P1;durP1;ratioP1;P2;durP2;ratioP2
30289;SDS011;17105;55.652;37.710;2023-02-28T00:00:28;13.20;;;6.13;;
30289;SDS011;17105;55.652;37.710;2023-02-28T00:01:02;11.07;;;5.80;;
30289;SDS011;17105;55.652;37.710;2023-02-28T00:01:37;14.90;;;5.60;;
30289;SDS011;17105;55.652;37.710;2023-02-28T00:02:11;12.32;;;5.43;;
30289;SDS011;17105;55.652;37.710;2023-02-28T00:02:47;12.43;;;6.18;;
30289;SDS011;17105;55.652;37.710;2023-02-28T00:03:22;16.83;;;6.18;;
30289;SDS011;17105;55.652;37.710;2023-02-28T00:03:56;13.68;;;6.38;;
30289;SDS011;17105;55.652;37.710;2023-02-28T00:04:32;19.52;;;6.30;;
30289;SDS011;17105;55.652;37.710;2023-02-28T00:05:06;14.82;;;6.30;;
30289;SDS011;17105;55.652;37.710;2023-02-28T00:05:42;14.40;;;6.63;;
30289;SDS011;17105;55.652;37.710;2023-02-28T00:06:16;15.40;;;6.90;;
30289;SDS011;17105;55.652;37.710;2023-02-28T00:06:52;15.23;;;6.72;;
30289;SDS011;17105;55.652;37.710;2023-02-28T00:07:26;14.32;;;6.80;;
30289;SDS011;17105;55.652;37.710;2023-02-28T00:08:03;17.15;;;7.10;;
30289;SDS011;17105;55.652;37.710;2023-02-28T00:08:38;16.75;;;7.05;;
30289;SDS011;17105;55.652;37.710;2023-02-28T00:09:13;18.48;;;9.13;;
30289;SDS011;17105;55.652;37.710;2023-02-28T00:09:48;16.23;;;6.82;;
30289;SDS011;17105;55.652;37.710;2023-02-28T00:10:23;14.10;;;6.78;;
30289;SDS011;17105;55.652;37.710;2023-02-28T00:11:00;16.17;;;6.47;;
30289;SDS011;17105;55.652;37.710;2023-02-28T00:11:35;15.88;;;6.82;;
30289;SDS011;17105;55.652;37.710;2023-02-28T00:12:10;15.25;;;6.68;;
30289;SDS011;17105;55.652;37.710;2023-02-28T00:12:47;18.13;;;7.38;;
30289;SDS011;17105;55.652;37.710;2023-02-28T00:13:22;14.57;;;6.57;;
30289;SDS011;17105;55.652;37.710;2023-02-28T00:13:56;16.95;;;6.68;;
30289;SDS011;17105;55.652;37.710;2023-02-28T00:14:32;14.25;;;6.03;;
30289;SDS011;17105;55.652;37.710;2023-02-28T00:15:07;15.27;;;6.95;;
30289;SDS011;17105;55.652;37.710;2023-02-28T00:15:41;13.95;;;6.72;;
30289;SDS011;17105;55.652;37.710;2023-02-28T00:16:18;14.00;;;6.68;;
30289;SDS011;17105;55.652;37.710;2023-02-28T00:16:52;14.27;;;6.85;;
30289;SDS011;17105;55.652;37.710;2023-02-28T00:17:26;14.52;;;6.55;;
30289;SDS011;17105;55.652;37.710;2023-02-28T00:18:01;15.80;;;6.35;;
30289;SDS011;17105;55.652;37.710;2023-02-28T00:18:36;15.35;;;7.00;;
30289;SDS011;17105;55.652;37.710;2023-02-28T00:19:11;15.38;;;6.95;;
30289;SDS011;17105;55.652;37.710;2023-02-28T00:19:46;15.60;;;7.13;;
30289;SDS011;17105;55.652;37.710;2023-02-28T00:20:21;17.40;;;7.65;;
30289;SDS011;17105;55.652;37.710;2023-02-28T00:20:57;16.08;;;6.93;;
30289;SDS011;17105;55.652;37.710;2023-02-28T00:21:31;18.20;;;6.63;;
30289;SDS011;17105;55.652;37.710;2023-02-28T00:22:06;16.77;;;6.70;;
30289;SDS011;17105;55.652;37.710;2023-02-28T00:22:41;16.33;;;7.05;;
30289;SDS011;17105;55.652;37.710;2023-02-28T00:23:15;17.13;;;6.68;;
30289;SDS011;17105;55.652;37.710;2023-02-28T00:23:51;16.70;;;6.65;;
30289;SDS011;17105;55.652;37.710;2023-02-28T00:24:25;13.68;;;6.40;;
30289;SDS011;17105;55.652;37.710;2023-02-28T00:24:59;16.67;;;6.90;;
30289;SDS011;17105;55.652;37.710;2023-02-28T00:25:33;15.48;;;6.65;;
30289;SDS011;17105;55.652;37.710;2023-02-28T00:26:07;14.65;;;6.38;;
30289;SDS011;17105;55.652;37.710;2023-02-28T00:26:43;14.80;;;6.28;;
30289;SDS011;17105;55.652;37.710;2023-02-28T00:27:17;15.68;;;7.03;;
30289;SDS011;17105;55.652;37.710;2023-02-28T00:27:52;14.05;;;6.57;;
30289;SDS011;17105;55.652;37.710;2023-02-28T00:28:27;16.70;;;6.60;;
30289;SDS011;17105;55.652;37.710;2023-02-28T00:29:03;15.48;;;7.10;;
30289;SDS011;17105;55.652;37.710;2023-02-28T00:29:39;14.23;;;6.53;;
30289;SDS011;17105;55.652;37.710;2023-02-28T00:30:15;15.00;;;6.47;;
30289;SDS011;17105;55.652;37.710;2023-02-28T00:30:49;13.70;;;7.05;;
30289;SDS011;17105;55.652;37.710;2023-02-28T00:31:24;15.75;;;6.93;;
30289;SDS011;17105;55.652;37.710;2023-02-28T00:31:59;13.55;;;6.25;;
30289;SDS011;17105;55.652;37.710;2023-02-28T00:32:33;14.40;;;6.70;;
30289;SDS011;17105;55.652;37.710;2023-02-28T00:33:08;14.60;;;6.30;;
30289;SDS011;17105;55.652;37.710;2023-02-28T00:33:42;15.75;;;6.50;;
30289;SDS011;17105;55.652;37.710;2023-02-28T00:34:15;14.80;;;6.63;;
30289;SDS011;17105;55.652;37.710;2023-02-28T00:34:51;15.98;;;7.10;;
30289;SDS011;17105;55.652;37.710;2023-02-28T00:35:25;13.38;;;6.20;;
30289;SDS011;17105;55.652;37.710;2023-02-28T00:36:03;15.88;;;6.70;;
30289;SDS011;17105;55.652;37.710;2023-02-28T00:36:41;14.52;;;5.97;;
30289;SDS011;17105;55.652;37.710;2023-02-28T00:37:18;14.73;;;6.20;;
30289;SDS011;17105;55.652;37.710;2023-02-28T00:37:52;13.98;;;6.63;;
30289;SDS011;17105;55.652;37.710;2023-02-28T00:38:26;15.02;;;6.55;;
30289;SDS011;17105;55.652;37.710;2023-02-28T00:39:00;15.15;;;6.60;;
30289;SDS011;17105;55.652;37.710;2023-02-28T00:39:35;14.60;;;6.82;;
30289;SDS011;17105;55.652;37.710;2023-02-28T00:40:11;13.07;;;6.40;;
30289;SDS011;17105;55.652;37.710;2023-02-28T00:40:45;16.77;;;6.78;;
30289;SDS011;17105;55.652;37.710;2023-02-28T00:41:19;16.42;;;6.60;;
30289;SDS011;17105;55.652;37.710;2023-02-28T00:41:54;16.40;;;7.53;;
30289;SDS011;17105;55.652;37.710;2023-02-28T00:42:28;15.27;;;6.80;;
30289;SDS011;17105;55.652;37.710;2023-02-28T00:43:03;14.85;;;7.13;;
30289;SDS011;17105;55.652;37.710;2023-02-28T00:43:38;13.82;;;6.63;;
30289;SDS011;17105;55.652;37.710;2023-02-28T00:44:11;15.35;;;6.40;;
30289;SDS011;17105;55.652;37.710;2023-02-28T00:44:47;13.35;;;6.25;;
30289;SDS011;17105;55.652;37.710;2023-02-28T00:45:21;15.95;;;6.93;;
30289;SDS011;17105;55.652;37.710;2023-02-28T00:45:55;16.50;;;6.90;;
30289;SDS011;17105;55.652;37.710;2023-02-28T00:46:29;15.35;;;6.47;;
30289;SDS011;17105;55.652;37.710;2023-02-28T00:47:05;13.85;;;6.70;;
30289;SDS011;17105;55.652;37.710;2023-02-28T00:47:39;15.70;;;6.45;;
30289;SDS011;17105;55.652;37.710;2023-02-28T00:48:13;13.40;;;6.65;;
30289;SDS011;17105;55.652;37.710;2023-02-28T00:48:48;15.45;;;6.60;;
30289;SDS011;17105;55.652;37.710;2023-02-28T00:49:22;15.63;;;7.03;;
30289;SDS011;17105;55.652;37.710;2023-02-28T00:49:55;15.02;;;6.28;;
30289;SDS011;17105;55.652;37.710;2023-02-28T00:50:30;14.73;;;6.53;;
30289;SDS011;17105;55.652;37.710;2023-02-28T00:51:05;16.40;;;5.90;;
30289;SDS011;17105;55.652;37.710;2023-02-28T00:51:38;16.98;;;6.50;;
30289;SDS011;17105;55.652;37.710;2023-02-28T00:52:14;14.63;;;6.38;;
30289;SDS011;17105;55.652;37.710;2023-02-28T00:52:47;17.35;;;6.65;;
30289;SDS011;17105;55.652;37.710;2023-02-28T00:53:25;16.23;;;6.80;;
30289;SDS011;17105;55.652;37.710;2023-02-28T00:54:02;15.63;;;5.95;;
30289;SDS011;17105;55.652;37.710;2023-02-28T00:54:36;14.73;;;6.07;;
30289;SDS011;17105;55.652;37.710;2023-02-28T00:55:12;16.50;;;6.38;;
30289;SDS011;17105;55.652;37.710;2023-02-28T00:55:46;14.65;;;6.28;;
30289;SDS011;17105;55.652;37.710;2023-02-28T00:56:20;14.52;;;6.85;;
30289;SDS011;17105;55.652;37.710;2023-02-28T00:56:54;14.38;;;6.32;;
30289;SDS011;17105;55.652;37.710;2023-02-28T00:57:29;15.50;;;6.63;;
30289;SDS011;17105;55.652;37.710;2023-02-28T00:58:04;15.52;;;6.93;;
30289;SDS011;17105;55.652;37.710;2023-02-28T00:58:38;16.63;;;6.97;;
30289;SDS011;17105;55.652;37.710;2023-02-28T00:59:12;15.10;;;6.88;;
30289;SDS011;17105;55.652;37.710;2023-02-28T00:59:50;12.38;;;5.80;;
30289;SDS011;17105;55.652;37.710;2023-02-28T01:00:26;15.32;;;6.40;;
30289;SDS011;17105;55.652;37.710;2023-02-28T01:01:00;14.30;;;6.55;;
30289;SDS011;17105;55.652;37.710;2023-02-28T01:01:36;15.32;;;6.63;;
30289;SDS011;17105;55.652;37.710;2023-02-28T01:02:10;16.92;;;6.90;;
30289;SDS011;17105;55.652;37.710;2023-02-28T01:02:44;17.83;;;6.45;;
30289;SDS011;17105;55.652;37.710;2023-02-28T01:03:19;17.15;;;6.93;;
30289;SDS011;17105;55.652;37.710;2023-02-28T01:03:53;15.32;;;6.70;;
30289;SDS011;17105;55.652;37.710;2023-02-28T01:04:28;13.63;;;6.35;;
30289;SDS011;17105;55.652;37.710;2023-02-28T01:05:05;14.48;;;6.25;;
30289;SDS011;17105;55.652;37.710;2023-02-28T01:05:39;14.07;;;6.68;;
30289;SDS011;17105;55.652;37.710;2023-02-28T01:06:14;14.98;;;6.75;;
30289;SDS011;17105;55.652;37.710;2023-02-28T01:06:48;15.32;;;6.40;;
30289;SDS011;17105;55.652;37.710;2023-02-28T01:07:24;16.17;;;6.65;;
30289;SDS011;17105;55.652;37.710;2023-02-28T01:07:58;14.98;;;6.50;;
30289;SDS011;17105;55.652;37.710;2023-02-28T01:08:32;14.15;;;6.53;;
30289;SDS011;17105;55.652;37.710;2023-02-28T01:09:07;24.42;;;9.77;;
30289;SDS011;17105;55.652;37.710;2023-02-28T01:09:42;16.10;;;7.22;;
30289;SDS011;17105;55.652;37.710;2023-02-28T01:10:16;14.77;;;6.53;;
30289;SDS011;17105;55.652;37.710;2023-02-28T01:10:54;15.05;;;6.45;;
30289;SDS011;17105;55.652;37.710;2023-02-28T01:11:28;15.50;;;7.05;;
30289;SDS011;17105;55.652;37.710;2023-02-28T01:12:02;18.35;;;6.97;;
30289;SDS011;17105;55.652;37.710;2023-02-28T01:12:38;14.00;;;6.25;;
30289;SDS011;17105;55.652;37.710;2023-02-28T01:13:12;15.30;;;6.65;;
30289;SDS011;17105;55.652;37.710;2023-02-28T01:13:46;14.48;;;6.60;;
30289;SDS011;17105;55.652;37.710;2023-02-28T01:14:20;15.98;;;6.57;;
30289;SDS011;17105;55.652;37.710;2023-02-28T01:14:56;14.52;;;6.40;;
30289;SDS011;17105;55.652;37.710;2023-02-28T01:15:30;15.00;;;6.70;;
30289;SDS011;17105;55.652;37.710;2023-02-28T01:16:06;15.40;;;6.68;;
30289;SDS011;17105;55.652;37.710;2023-02-28T01:16:39;13.68;;;6.15;;
30289;SDS011;17105;55.652;37.710;2023-02-28T01:17:13;15.23;;;6.80;;
30289;SDS011;17105;55.652;37.710;2023-02-28T01:17:48;14.30;;;6.45;;
30289;SDS011;17105;55.652;37.710;2023-02-28T01:18:23;15.32;;;6.38;;
30289;SDS011;17105;55.652;37.710;2023-02-28T01:18:58;16.15;;;6.65;;
30289;SDS011;17105;55.652;37.710;2023-02-28T01:19:31;13.52;;;6.38;;
30289;SDS011;17105;55.652;37.710;2023-02-28T01:20:07;14.80;;;6.88;;
30289;SDS011;17105;55.652;37.710;2023-02-28T01:20:43;18.52;;;6.60;;
30289;SDS011;17105;55.652;37.710;2023-02-28T01:21:21;13.82;;;6.28;;
30289;SDS011;17105;55.652;37.710;2023-02-28T01:21:54;14.60;;;6.50;;
30289;SDS011;17105;55.652;37.710;2023-02-28T01:22:29;15.80;;;6.53;;
30289;SDS011;17105;55.652;37.710;2023-02-28T01:23:03;16.67;;;6.78;;
30289;SDS011;17105;55.652;37.710;2023-02-28T01:23:39;15.82;;;6.93;;
30289;SDS011;17105;55.652;37.710;2023-02-28T01:24:14;12.82;;;6.45;;
30289;SDS011;17105;55.652;37.710;2023-02-28T01:24:49;15.50;;;6.85;;
30289;SDS011;17105;55.652;37.710;2023-02-28T01:25:22;16.90;;;6.72;;
30289;SDS011;17105;55.652;37.710;2023-02-28T01:25:57;14.98;;;6.65;;
30289;SDS011;17105;55.652;37.710;2023-02-28T01:26:31;14.77;;;6.43;;
30289;SDS011;17105;55.652;37.710;2023-02-28T01:27:05;14.45;;;6.43;;
30289;SDS011;17105;55.652;37.710;2023-02-28T01:27:42;15.68;;;5.90;;
30289;SDS011;17105;55.652;37.710;2023-02-28T01:28:16;16.25;;;6.55;;
30289;SDS011;17105;55.652;37.710;2023-02-28T01:28:51;15.73;;;6.68;;
30289;SDS011;17105;55.652;37.710;2023-02-28T01:29:26;17.77;;;6.40;;
30289;SDS011;17105;55.652;37.710;2023-02-28T01:30:01;13.95;;;6.47;;
30289;SDS011;17105;55.652;37.710;2023-02-28T01:30:36;13.45;;;6.18;;
30289;SDS011;17105;55.652;37.710;2023-02-28T01:31:11;15.05;;;6.95;;
30289;SDS011;17105;55.652;37.710;2023-02-28T01:31:44;15.70;;;6.53;;
30289;SDS011;17105;55.652;37.710;2023-02-28T01:32:20;16.10;;;6.55;;
30289;SDS011;17105;55.652;37.710;2023-02-28T01:32:55;15.48;;;6.57;;
30289;SDS011;17105;55.652;37.710;2023-02-28T01:33:29;13.93;;;6.80;;
30289;SDS011;17105;55.652;37.710;2023-02-28T01:34:04;15.65;;;6.97;;
30289;SDS011;17105;55.652;37.710;2023-02-28T01:34:39;13.23;;;6.50;;
30289;SDS011;17105;55.652;37.710;2023-02-28T01:35:14;14.30;;;7.00;;
30289;SDS011;17105;55.652;37.710;2023-02-28T01:35:50;13.88;;;6.25;;
30289;SDS011;17105;55.652;37.710;2023-02-28T01:36:31;15.52;;;6.50;;
30289;SDS011;17105;55.652;37.710;2023-02-28T01:37:05;13.32;;;6.18;;
30289;SDS011;17105;55.652;37.710;2023-02-28T01:37:40;13.55;;;6.30;;
30289;SDS011;17105;55.652;37.710;2023-02-28T01:38:14;13.98;;;5.88;;
30289;SDS011;17105;55.652;37.710;2023-02-28T01:38:54;15.43;;;6.68;;
30289;SDS011;17105;55.652;37.710;2023-02-28T01:39:27;15.20;;;6.03;;
30289;SDS011;17105;55.652;37.710;2023-02-28T01:40:01;16.05;;;6.38;;
30289;SDS011;17105;55.652;37.710;2023-02-28T01:40:36;14.77;;;6.32;;
30289;SDS011;17105;55.652;37.710;2023-02-28T01:41:11;14.25;;;6.70;;
30289;SDS011;17105;55.652;37.710;2023-02-28T01:41:49;14.27;;;5.87;;
30289;SDS011;17105;55.652;37.710;2023-02-28T01:42:22;14.45;;;6.60;;
30289;SDS011;17105;55.652;37.710;2023-02-28T01:42:56;13.30;;;6.03;;
30289;SDS011;17105;55.652;37.710;2023-02-28T01:43:31;13.00;;;6.20;;
30289;SDS011;17105;55.652;37.710;2023-02-28T01:44:06;13.32;;;5.70;;
30289;SDS011;17105;55.652;37.710;2023-02-28T01:45:43;15.23;;;6.15;;
30289;SDS011;17105;55.652;37.710;2023-02-28T01:46:17;16.20;;;6.43;;
30289;SDS011;17105;55.652;37.710;2023-02-28T01:46:52;13.20;;;6.03;;
30289;SDS011;17105;55.652;37.710;2023-02-28T01:47:26;17.23;;;7.10;;
30289;SDS011;17105;55.652;37.710;2023-02-28T01:48:02;17.95;;;6.47;;
30289;SDS011;17105;55.652;37.710;2023-02-28T01:48:39;12.82;;;6.05;;
30289;SDS011;17105;55.652;37.710;2023-02-28T01:49:14;13.98;;;6.07;;
30289;SDS011;17105;55.652;37.710;2023-02-28T01:49:52;11.70;;;5.75;;
30289;SDS011;17105;55.652;37.710;2023-02-28T01:50:27;13.77;;;6.40;;
30289;SDS011;17105;55.652;37.710;2023-02-28T01:51:05;13.65;;;5.93;;
30289;SDS011;17105;55.652;37.710;2023-02-28T01:51:40;16.60;;;6.88;;
30289;SDS011;17105;55.652;37.710;2023-02-28T01:52:22;16.55;;;6.75;;
30289;SDS011;17105;55.652;37.710;2023-02-28T01:52:59;16.48;;;6.05;;
30289;SDS011;17105;55.652;37.710;2023-02-28T01:53:37;16.13;;;7.05;;
30289;SDS011;17105;55.652;37.710;2023-02-28T01:54:15;16.92;;;6.55;;
30289;SDS011;17105;55.652;37.710;2023-02-28T01:54:52;18.52;;;6.00;;
30289;SDS011;17105;55.652;37.710;2023-02-28T01:55:25;15.65;;;6.35;;
30289;SDS011;17105;55.652;37.710;2023-02-28T01:56:02;14.98;;;6.45;;
30289;SDS011;17105;55.652;37.710;2023-02-28T01:56:38;17.90;;;7.00;;
30289;SDS011;17105;55.652;37.710;2023-02-28T01:57:15;16.10;;;6.38;;
30289;SDS011;17105;55.652;37.710;2023-02-28T01:57:52;14.80;;;6.55;;
30289;SDS011;17105;55.652;37.710;2023-02-28T01:58:29;13.77;;;6.70;;
30289;SDS011;17105;55.652;37.710;2023-02-28T01:59:03;14.68;;;6.10;;
30289;SDS011;17105;55.652;37.710;2023-02-28T01:59:38;12.98;;;6.13;;
30289;SDS011;17105;55.652;37.710;2023-02-28T02:00:19;11.65;;;5.57;;
30289;SDS011;17105;55.652;37.710;2023-02-28T02:00:55;14.63;;;5.65;;
30289;SDS011;17105;55.652;37.710;2023-02-28T02:01:31;13.40;;;6.05;;
30289;SDS011;17105;55.652;37.710;2023-02-28T02:02:05;13.55;;;6.22;;
30289;SDS011;17105;55.652;37.710;2023-02-28T02:02:39;15.93;;;6.30;;
30289;SDS011;17105;55.652;37.710;2023-02-28T02:03:15;12.65;;;6.25;;
30289;SDS011;17105;55.652;37.710;2023-02-28T02:03:52;15.35;;;6.78;;
30289;SDS011;17105;55.652;37.710;2023-02-28T02:04:32;16.27;;;6.82;;
30289;SDS011;17105;55.652;37.710;2023-02-28T02:05:09;15.18;;;6.18;;
30289;SDS011;17105;55.652;37.710;2023-02-28T02:05:44;16.40;;;6.93;;
30289;SDS011;17105;55.652;37.710;2023-02-28T02:06:20;12.75;;;5.75;;
30289;SDS011;17105;55.652;37.710;2023-02-28T02:06:54;15.05;;;6.38;;
30289;SDS011;17105;55.652;37.710;2023-02-28T02:07:29;17.17;;;6.63;;
30289;SDS011;17105;55.652;37.710;2023-02-28T02:08:03;12.98;;;6.30;;
30289;SDS011;17105;55.652;37.710;2023-02-28T02:08:41;13.98;;;6.25;;
30289;SDS011;17105;55.652;37.710;2023-02-28T02:09:16;14.98;;;6.10;;
30289;SDS011;17105;55.652;37.710;2023-02-28T02:09:49;14.27;;;6.38;;
30289;SDS011;17105;55.652;37.710;2023-02-28T02:10:27;14.18;;;5.93;;
30289;SDS011;17105;55.652;37.710;2023-02-28T02:11:02;13.48;;;5.95;;
30289;SDS011;17105;55.652;37.710;2023-02-28T02:11:38;14.60;;;6.32;;
30289;SDS011;17105;55.652;37.710;2023-02-28T02:12:15;12.95;;;6.03;;
30289;SDS011;17105;55.652;37.710;2023-02-28T02:13:04;12.30;;;5.55;;
30289;SDS011;17105;55.652;37.710;2023-02-28T02:13:46;12.93;;;5.95;;
30289;SDS011;17105;55.652;37.710;2023-02-28T02:14:31;12.05;;;5.30;;
30289;SDS011;17105;55.652;37.710;2023-02-28T02:15:12;14.10;;;5.25;;
30289;SDS011;17105;55.652;37.710;2023-02-28T02:15:53;16.60;;;5.05;;
30289;SDS011;17105;55.652;37.710;2023-02-28T02:17:07;13.07;;;5.20;;
30289;SDS011;17105;55.652;37.710;2023-02-28T02:17:45;11.82;;;4.80;;
30289;SDS011;17105;55.652;37.710;2023-02-28T02:18:23;12.88;;;5.30;;
30289;SDS011;17105;55.652;37.710;2023-02-28T02:19:08;13.95;;;6.03;;
30289;SDS011;17105;55.652;37.710;2023-02-28T02:19:51;13.90;;;5.47;;
30289;SDS011;17105;55.652;37.710;2023-02-28T02:20:42;12.13;;;5.05;;
30289;SDS011;17105;55.652;37.710;2023-02-28T02:22:22;12.35;;;5.68;;
30289;SDS011;17105;55.652;37.710;2023-02-28T02:23:04;15.43;;;5.00;;
30289;SDS011;17105;55.652;37.710;2023-02-28T02:24:29;10.38;;;4.13;;
30289;SDS011;17105;55.652;37.710;2023-02-28T02:25:10;11.48;;;4.57;;
30289;SDS011;17105;55.652;37.710;2023-02-28T02:25:46;10.63;;;4.45;;
30289;SDS011;17105;55.652;37.710;2023-02-28T02:27:22;16.10;;;4.93;;
30289;SDS011;17105;55.652;37.710;2023-02-28T02:28:04;11.57;;;5.00;;
30289;SDS011;17105;55.652;37.710;2023-02-28T02:28:53;17.92;;;5.97;;
30289;SDS011;17105;55.652;37.710;2023-02-28T02:31:32;13.85;;;5.05;;
30289;SDS011;17105;55.652;37.710;2023-02-28T02:32:30;12.13;;;5.13;;
30289;SDS011;17105;55.652;37.710;2023-02-28T02:33:27;12.57;;;5.10;;
30289;SDS011;17105;55.652;37.710;2023-02-28T02:34:58;12.25;;;4.93;;
30289;SDS011;17105;55.652;37.710;2023-02-28T02:35:34;10.30;;;4.88;;
30289;SDS011;17105;55.652;37.710;2023-02-28T02:36:12;13.40;;;5.38;;
30289;SDS011;17105;55.652;37.710;2023-02-28T02:36:51;11.70;;;5.35;;
30289;SDS011;17105;55.652;37.710;2023-02-28T02:37:31;13.25;;;5.57;;
30289;SDS011;17105;55.652;37.710;2023-02-28T02:38:11;12.27;;;5.15;;
30289;SDS011;17105;55.652;37.710;2023-02-28T02:38:48;11.10;;;5.22;;
30289;SDS011;17105;55.652;37.710;2023-02-28T02:39:27;12.35;;;5.43;;
30289;SDS011;17105;55.652;37.710;2023-02-28T02:40:06;11.57;;;5.15;;
30289;SDS011;17105;55.652;37.710;2023-02-28T02:40:44;13.70;;;4.45;;
30289;SDS011;17105;55.652;37.710;2023-02-28T02:41:23;11.05;;;5.05;;
30289;SDS011;17105;55.652;37.710;2023-02-28T02:41:59;12.48;;;5.45;;
30289;SDS011;17105;55.652;37.710;2023-02-28T02:42:40;12.05;;;5.47;;
30289;SDS011;17105;55.652;37.710;2023-02-28T02:43:16;11.90;;;5.10;;
30289;SDS011;17105;55.652;37.710;2023-02-28T02:43:52;12.05;;;4.93;;
30289;SDS011;17105;55.652;37.710;2023-02-28T02:44:31;10.25;;;4.82;;
30289;SDS011;17105;55.652;37.710;2023-02-28T02:45:09;14.15;;;5.40;;
30289;SDS011;17105;55.652;37.710;2023-02-28T02:45:44;12.38;;;5.18;;
30289;SDS011;17105;55.652;37.710;2023-02-28T02:46:21;14.27;;;5.13;;
30289;SDS011;17105;55.652;37.710;2023-02-28T02:46:58;13.05;;;5.78;;
30289;SDS011;17105;55.652;37.710;2023-02-28T02:47:32;12.85;;;5.65;;
30289;SDS011;17105;55.652;37.710;2023-02-28T02:48:09;12.43;;;5.63;;
30289;SDS011;17105;55.652;37.710;2023-02-28T02:48:46;13.32;;;5.45;;
30289;SDS011;17105;55.652;37.710;2023-02-28T02:49:22;15.27;;;5.80;;
30289;SDS011;17105;55.652;37.710;2023-02-28T02:50:03;12.70;;;5.15;;
30289;SDS011;17105;55.652;37.710;2023-02-28T02:50:38;12.77;;;5.25;;
30289;SDS011;17105;55.652;37.710;2023-02-28T02:51:16;12.07;;;5.18;;
30289;SDS011;17105;55.652;37.710;2023-02-28T02:51:51;12.00;;;5.80;;
30289;SDS011;17105;55.652;37.710;2023-02-28T02:52:28;12.27;;;5.22;;
30289;SDS011;17105;55.652;37.710;2023-02-28T02:53:05;10.68;;;4.65;;
30289;SDS011;17105;55.652;37.710;2023-02-28T02:53:40;14.05;;;5.50;;
30289;SDS011;17105;55.652;37.710;2023-02-28T02:54:15;11.38;;;5.35;;
30289;SDS011;17105;55.652;37.710;2023-02-28T02:54:52;17.83;;;7.65;;
30289;SDS011;17105;55.652;37.710;2023-02-28T02:55:27;14.27;;;5.47;;
30289;SDS011;17105;55.652;37.710;2023-02-28T02:56:01;13.05;;;5.68;;
30289;SDS011;17105;55.652;37.710;2023-02-28T02:56:37;13.23;;;5.47;;
30289;SDS011;17105;55.652;37.710;2023-02-28T02:57:13;10.60;;;5.15;;
30289;SDS011;17105;55.652;37.710;2023-02-28T02:57:49;13.02;;;5.53;;
30289;SDS011;17105;55.652;37.710;2023-02-28T02:58:27;12.98;;;5.35;;
30289;SDS011;17105;55.652;37.710;2023-02-28T02:59:06;11.48;;;4.97;;
30289;SDS011;17105;55.652;37.710;2023-02-28T02:59:43;12.63;;;5.43;;
30289;SDS011;17105;55.652;37.710;2023-02-28T03:00:20;11.25;;;5.00;;
30289;SDS011;17105;55.652;37.710;2023-02-28T03:00:56;11.85;;;5.40;;
30289;SDS011;17105;55.652;37.710;2023-02-28T03:01:31;10.20;;;4.82;;
30289;SDS011;17105;55.652;37.710;2023-02-28T03:02:06;13.25;;;6.22;;
30289;SDS011;17105;55.652;37.710;2023-02-28T03:02:43;13.00;;;5.13;;
30289;SDS011;17105;55.652;37.710;2023-02-28T03:03:20;12.02;;;4.93;;
30289;SDS011;17105;55.652;37.710;2023-02-28T03:04:02;10.68;;;4.85;;
30289;SDS011;17105;55.652;37.710;2023-02-28T03:04:40;10.75;;;4.65;;
30289;SDS011;17105;55.652;37.710;2023-02-28T03:05:19;10.05;;;4.78;;
30289;SDS011;17105;55.652;37.710;2023-02-28T03:05:56;9.80;;;4.72;;
30289;SDS011;17105;55.652;37.710;2023-02-28T03:06:31;11.55;;;5.22;;
30289;SDS011;17105;55.652;37.710;2023-02-28T03:07:05;10.63;;;5.25;;
30289;SDS011;17105;55.652;37.710;2023-02-28T03:07:39;12.77;;;5.30;;
30289;SDS011;17105;55.652;37.710;2023-02-28T03:08:15;11.15;;;5.30;;
30289;SDS011;17105;55.652;37.710;2023-02-28T03:08:50;11.45;;;5.60;;
30289;SDS011;17105;55.652;37.710;2023-02-28T03:09:24;12.70;;;5.53;;
30289;SDS011;17105;55.652;37.710;2023-02-28T03:09:58;14.15;;;5.28;;
30289;SDS011;17105;55.652;37.710;2023-02-28T03:10:36;13.27;;;5.45;;
30289;SDS011;17105;55.652;37.710;2023-02-28T03:11:12;14.75;;;5.50;;
30289;SDS011;17105;55.652;37.710;2023-02-28T03:11:48;14.05;;;5.32;;
30289;SDS011;17105;55.652;37.710;2023-02-28T03:12:29;12.57;;;5.45;;
30289;SDS011;17105;55.652;37.710;2023-02-28T03:13:18;10.93;;;5.03;;
30289;SDS011;17105;55.652;37.710;2023-02-28T03:14:56;12.25;;;4.63;;
30289;SDS011;17105;55.652;37.710;2023-02-28T03:15:33;12.45;;;4.95;;
30289;SDS011;17105;55.652;37.710;2023-02-28T03:17:10;9.52;;;4.40;;
30289;SDS011;17105;55.652;37.710;2023-02-28T03:17:58;10.88;;;4.40;;
30289;SDS011;17105;55.652;37.710;2023-02-28T03:18:38;10.48;;;4.65;;
30289;SDS011;17105;55.652;37.710;2023-02-28T03:20:02;9.52;;;4.28;;
30289;SDS011;17105;55.652;37.710;2023-02-28T03:20:43;9.48;;;4.32;;
30289;SDS011;17105;55.652;37.710;2023-02-28T03:21:25;9.93;;;4.43;;
30289;SDS011;17105;55.652;37.710;2023-02-28T03:22:06;9.27;;;4.57;;
30289;SDS011;17105;55.652;37.710;2023-02-28T03:22:49;10.85;;;4.57;;
30289;SDS011;17105;55.652;37.710;2023-02-28T03:23:27;9.77;;;4.45;;
30289;SDS011;17105;55.652;37.710;2023-02-28T03:24:07;9.15;;;3.75;;
30289;SDS011;17105;55.652;37.710;2023-02-28T03:24:44;9.27;;;4.00;;
30289;SDS011;17105;55.652;37.710;2023-02-28T03:25:21;11.77;;;5.47;;
30289;SDS011;17105;55.652;37.710;2023-02-28T03:25:58;13.45;;;6.22;;
30289;SDS011;17105;55.652;37.710;2023-02-28T03:26:36;16.98;;;7.40;;
30289;SDS011;17105;55.652;37.710;2023-02-28T03:27:15;10.63;;;4.63;;
30289;SDS011;17105;55.652;37.710;2023-02-28T03:27:53;10.68;;;5.15;;
30289;SDS011;17105;55.652;37.710;2023-02-28T03:28:31;12.13;;;4.75;;
30289;SDS011;17105;55.652;37.710;2023-02-28T03:29:07;9.32;;;4.60;;
30289;SDS011;17105;55.652;37.710;2023-02-28T03:29:45;10.48;;;4.60;;
30289;SDS011;17105;55.652;37.710;2023-02-28T03:30:23;11.07;;;4.43;;
30289;SDS011;17105;55.652;37.710;2023-02-28T03:30:59;10.07;;;4.55;;
30289;SDS011;17105;55.652;37.710;2023-02-28T03:31:35;9.43;;;4.35;;
30289;SDS011;17105;55.652;37.710;2023-02-28T03:32:13;8.98;;;4.18;;
30289;SDS011;17105;55.652;37.710;2023-02-28T03:32:55;9.40;;;4.00;;
30289;SDS011;17105;55.652;37.710;2023-02-28T03:33:32;8.65;;;4.22;;
30289;SDS011;17105;55.652;37.710;2023-02-28T03:34:10;10.52;;;4.10;;
30289;SDS011;17105;55.652;37.710;2023-02-28T03:34:46;9.98;;;4.50;;
30289;SDS011;17105;55.652;37.710;2023-02-28T03:35:22;11.50;;;4.95;;
30289;SDS011;17105;55.652;37.710;2023-02-28T03:36:00;10.02;;;4.25;;
30289;SDS011;17105;55.652;37.710;2023-02-28T03:36:36;11.15;;;4.38;;
30289;SDS011;17105;55.652;37.710;2023-02-28T03:37:17;8.38;;;3.95;;
30289;SDS011;17105;55.652;37.710;2023-02-28T03:37:54;8.95;;;3.97;;
30289;SDS011;17105;55.652;37.710;2023-02-28T03:38:31;10.27;;;4.57;;
30289;SDS011;17105;55.652;37.710;2023-02-28T03:39:09;10.57;;;4.53;;
30289;SDS011;17105;55.652;37.710;2023-02-28T03:39:45;9.95;;;4.35;;
30289;SDS011;17105;55.652;37.710;2023-02-28T03:40:21;9.02;;;4.22;;
30289;SDS011;17105;55.652;37.710;2023-02-28T03:40:58;10.90;;;4.30;;
30289;SDS011;17105;55.652;37.710;2023-02-28T03:41:35;8.73;;;3.85;;
30289;SDS011;17105;55.652;37.710;2023-02-28T03:42:13;8.95;;;4.30;;
30289;SDS011;17105;55.652;37.710;2023-02-28T03:42:49;9.85;;;4.05;;
30289;SDS011;17105;55.652;37.710;2023-02-28T03:43:26;9.50;;;4.10;;